Airfield :
LOGIN :

Register | Disclaimer

   EN    FR    IT 

 










Legend :    VFR   Marginal VFR   IFR   Intensive IFR   Very Intensive IFR
Visi :
Ceiling :
>= 8 km
>= 3000ft
5 to 8 km
1000 to 3000 ft
1500m to 5 km
500 to 1000 ft
800 to 1500m
200 to 500 ft
< 800m
< 200 ft
Symbols :   Thunderstorms  Fog  Heavy snow  Heavy precipitations  Wind > 20 kt
SIGMETs :     Misc.  Thunderstorms  Icing  Turbulence  Mountain Waves  Volcanic Ashes







- Airport Elevation : 84 ft
- Download approach charts


LFBC - Cazaux

CURRENT METAR :
  • 261230Z AUTO 14010KT CAVOK 18/06 Q1016

EXPIRED METARs :
  • 261200Z AUTO 13009KT 090V160 CAVOK 17/06 Q1016
  • 261130Z AUTO 12007KT 090V150 CAVOK 17/07 Q1017
  • 261100Z AUTO 11007KT CAVOK 15/07 Q1017
  • 261030Z AUTO 14005KT CAVOK 13/07 Q1017
  • 261000Z AUTO 17003KT 130V200 CAVOK 12/07 Q1017

Expired Forecast.
No reported NOTAMs for that airfield.
1 SIGMET reported for the Bordeaux FIR (LFBB) :
 
Severe turbulence
LFBB SIGMET 2 VALID 261000/261400 LFPW
LFBB BORDEAUX FIR/UIR SEV TURB FCST WI N4545 W00145 - N4630 W00130 - N4545 E00300 - N4500 E00245 FL160/330 INTSF=



MET'MAP, your aeronautical weather chart ! - Copyright ORBIFLY December 2007 - Disclaimer

ORBIFLY MET'MAP TEAM :

Programming & Development : Alexandra Zaïnal
Concept & Development : Baudouin d'Aumeries
Co-Development & Prog : Marc-Olivier Méhu
Technical & hardware support : Manuel Goepfert

Contact : metmap@orbifly.com




SOURCES & CREDITS :

   NOAA